sensor_id;sensor_type;location;lat;lon;timestamp;P1;durP1;ratioP1;P2;durP2;ratioP2
11699;SDS011;5906;51.660;6.674;2023-05-10T00:00:21;14.90;;;8.30;;
11699;SDS011;5906;51.660;6.674;2023-05-10T00:02:49;10.57;;;6.73;;
11699;SDS011;5906;51.660;6.674;2023-05-10T00:05:16;14.63;;;7.73;;
11699;SDS011;5906;51.660;6.674;2023-05-10T00:07:43;12.40;;;7.30;;
11699;SDS011;5906;51.660;6.674;2023-05-10T00:10:11;12.60;;;7.30;;
11699;SDS011;5906;51.660;6.674;2023-05-10T00:12:38;10.43;;;6.60;;
11699;SDS011;5906;51.660;6.674;2023-05-10T00:15:05;12.17;;;6.63;;
11699;SDS011;5906;51.660;6.674;2023-05-10T00:17:33;12.70;;;7.27;;
11699;SDS011;5906;51.660;6.674;2023-05-10T00:19:59;13.77;;;7.30;;
11699;SDS011;5906;51.660;6.674;2023-05-10T00:22:26;13.47;;;7.57;;
11699;SDS011;5906;51.660;6.674;2023-05-10T00:24:53;11.70;;;7.17;;
11699;SDS011;5906;51.660;6.674;2023-05-10T00:27:20;12.37;;;7.27;;
11699;SDS011;5906;51.660;6.674;2023-05-10T00:29:47;12.73;;;8.43;;
11699;SDS011;5906;51.660;6.674;2023-05-10T00:32:14;17.30;;;9.13;;
11699;SDS011;5906;51.660;6.674;2023-05-10T00:34:42;12.80;;;8.20;;
11699;SDS011;5906;51.660;6.674;2023-05-10T00:37:09;16.00;;;9.13;;
11699;SDS011;5906;51.660;6.674;2023-05-10T00:39:35;15.23;;;8.50;;
11699;SDS011;5906;51.660;6.674;2023-05-10T00:42:02;16.50;;;8.90;;
11699;SDS011;5906;51.660;6.674;2023-05-10T00:44:30;13.47;;;8.67;;
11699;SDS011;5906;51.660;6.674;2023-05-10T00:46:57;17.93;;;9.13;;
11699;SDS011;5906;51.660;6.674;2023-05-10T00:49:25;11.80;;;7.63;;
11699;SDS011;5906;51.660;6.674;2023-05-10T00:51:53;15.97;;;9.83;;
11699;SDS011;5906;51.660;6.674;2023-05-10T00:54:21;15.10;;;8.50;;
11699;SDS011;5906;51.660;6.674;2023-05-10T00:56:48;17.50;;;9.33;;
11699;SDS011;5906;51.660;6.674;2023-05-10T00:59:15;17.07;;;9.77;;
11699;SDS011;5906;51.660;6.674;2023-05-10T01:01:47;18.00;;;10.07;;
11699;SDS011;5906;51.660;6.674;2023-05-10T01:04:14;15.97;;;10.20;;
11699;SDS011;5906;51.660;6.674;2023-05-10T01:06:41;17.77;;;10.97;;
11699;SDS011;5906;51.660;6.674;2023-05-10T01:09:09;21.30;;;10.43;;
11699;SDS011;5906;51.660;6.674;2023-05-10T01:11:38;18.87;;;10.17;;
11699;SDS011;5906;51.660;6.674;2023-05-10T01:14:05;16.23;;;10.47;;
11699;SDS011;5906;51.660;6.674;2023-05-10T01:16:35;25.17;;;12.63;;
11699;SDS011;5906;51.660;6.674;2023-05-10T01:19:11;20.23;;;11.40;;
11699;SDS011;5906;51.660;6.674;2023-05-10T01:39:43;19.90;;;11.10;;
11699;SDS011;5906;51.660;6.674;2023-05-10T01:42:03;22.00;;;12.13;;
11699;SDS011;5906;51.660;6.674;2023-05-10T01:44:46;16.43;;;10.17;;
11699;SDS011;5906;51.660;6.674;2023-05-10T01:47:29;19.10;;;10.67;;
11699;SDS011;5906;51.660;6.674;2023-05-10T01:50:06;18.70;;;9.70;;
11699;SDS011;5906;51.660;6.674;2023-05-10T01:52:41;23.57;;;10.47;;
11699;SDS011;5906;51.660;6.674;2023-05-10T01:55:14;20.27;;;11.40;;
11699;SDS011;5906;51.660;6.674;2023-05-10T01:57:43;22.23;;;11.20;;
11699;SDS011;5906;51.660;6.674;2023-05-10T02:00:12;21.70;;;11.67;;
11699;SDS011;5906;51.660;6.674;2023-05-10T02:02:42;20.57;;;11.20;;
11699;SDS011;5906;51.660;6.674;2023-05-10T02:05:12;25.70;;;10.30;;
11699;SDS011;5906;51.660;6.674;2023-05-10T02:07:41;23.53;;;12.33;;
11699;SDS011;5906;51.660;6.674;2023-05-10T02:10:09;27.90;;;13.97;;
11699;SDS011;5906;51.660;6.674;2023-05-10T02:12:39;25.73;;;13.00;;
11699;SDS011;5906;51.660;6.674;2023-05-10T02:15:08;24.20;;;12.80;;
11699;SDS011;5906;51.660;6.674;2023-05-10T02:17:37;24.80;;;12.27;;
11699;SDS011;5906;51.660;6.674;2023-05-10T02:20:07;26.67;;;12.40;;
11699;SDS011;5906;51.660;6.674;2023-05-10T02:22:36;21.63;;;11.37;;
11699;SDS011;5906;51.660;6.674;2023-05-10T02:25:05;28.87;;;13.77;;
11699;SDS011;5906;51.660;6.674;2023-05-10T02:27:34;27.57;;;12.77;;
11699;SDS011;5906;51.660;6.674;2023-05-10T02:30:02;26.77;;;12.70;;
11699;SDS011;5906;51.660;6.674;2023-05-10T02:32:31;24.63;;;13.60;;
11699;SDS011;5906;51.660;6.674;2023-05-10T02:34:59;26.57;;;13.13;;
11699;SDS011;5906;51.660;6.674;2023-05-10T02:37:29;27.10;;;13.50;;
11699;SDS011;5906;51.660;6.674;2023-05-10T02:39:56;28.70;;;14.50;;
11699;SDS011;5906;51.660;6.674;2023-05-10T02:42:27;28.90;;;15.40;;
11699;SDS011;5906;51.660;6.674;2023-05-10T02:45:02;32.37;;;15.37;;
11699;SDS011;5906;51.660;6.674;2023-05-10T02:47:33;33.13;;;17.10;;
11699;SDS011;5906;51.660;6.674;2023-05-10T02:50:00;32.70;;;16.03;;
11699;SDS011;5906;51.660;6.674;2023-05-10T02:52:29;27.33;;;14.90;;
11699;SDS011;5906;51.660;6.674;2023-05-10T02:55:03;31.03;;;15.17;;
11699;SDS011;5906;51.660;6.674;2023-05-10T02:57:33;32.97;;;15.73;;
11699;SDS011;5906;51.660;6.674;2023-05-10T03:00:01;32.00;;;16.97;;
11699;SDS011;5906;51.660;6.674;2023-05-10T03:02:29;28.30;;;14.67;;
11699;SDS011;5906;51.660;6.674;2023-05-10T03:04:57;31.03;;;15.57;;
11699;SDS011;5906;51.660;6.674;2023-05-10T03:07:24;38.57;;;16.07;;
11699;SDS011;5906;51.660;6.674;2023-05-10T03:09:51;30.20;;;15.00;;
11699;SDS011;5906;51.660;6.674;2023-05-10T03:20:10;35.07;;;17.10;;
11699;SDS011;5906;51.660;6.674;2023-05-10T03:22:45;29.33;;;15.87;;
11699;SDS011;5906;51.660;6.674;2023-05-10T03:25:16;33.47;;;16.67;;
11699;SDS011;5906;51.660;6.674;2023-05-10T03:27:44;34.53;;;16.93;;
11699;SDS011;5906;51.660;6.674;2023-05-10T03:30:12;34.77;;;17.97;;
11699;SDS011;5906;51.660;6.674;2023-05-10T03:32:40;38.03;;;17.50;;
11699;SDS011;5906;51.660;6.674;2023-05-10T03:35:11;40.50;;;17.67;;
11699;SDS011;5906;51.660;6.674;2023-05-10T03:37:39;37.90;;;18.47;;
11699;SDS011;5906;51.660;6.674;2023-05-10T03:40:06;36.00;;;18.40;;
11699;SDS011;5906;51.660;6.674;2023-05-10T03:42:34;38.20;;;19.40;;
11699;SDS011;5906;51.660;6.674;2023-05-10T03:45:01;39.57;;;19.33;;
11699;SDS011;5906;51.660;6.674;2023-05-10T03:47:28;45.90;;;20.67;;
11699;SDS011;5906;51.660;6.674;2023-05-10T03:49:56;42.23;;;20.40;;
11699;SDS011;5906;51.660;6.674;2023-05-10T03:52:23;43.67;;;20.73;;
11699;SDS011;5906;51.660;6.674;2023-05-10T03:54:50;40.60;;;19.60;;
11699;SDS011;5906;51.660;6.674;2023-05-10T03:57:17;46.13;;;19.70;;
11699;SDS011;5906;51.660;6.674;2023-05-10T03:59:44;54.87;;;22.20;;
11699;SDS011;5906;51.660;6.674;2023-05-10T04:02:11;39.07;;;21.17;;
11699;SDS011;5906;51.660;6.674;2023-05-10T04:04:38;46.67;;;22.47;;
11699;SDS011;5906;51.660;6.674;2023-05-10T04:07:05;42.97;;;21.00;;
11699;SDS011;5906;51.660;6.674;2023-05-10T04:09:32;47.50;;;22.00;;
11699;SDS011;5906;51.660;6.674;2023-05-10T04:11:59;49.83;;;23.50;;
11699;SDS011;5906;51.660;6.674;2023-05-10T04:14:29;46.23;;;21.23;;
11699;SDS011;5906;51.660;6.674;2023-05-10T04:16:56;47.03;;;21.90;;
11699;SDS011;5906;51.660;6.674;2023-05-10T04:19:23;45.43;;;22.00;;
11699;SDS011;5906;51.660;6.674;2023-05-10T04:21:50;49.83;;;22.63;;
11699;SDS011;5906;51.660;6.674;2023-05-10T04:24:16;46.43;;;22.53;;
11699;SDS011;5906;51.660;6.674;2023-05-10T04:26:43;50.27;;;20.93;;
11699;SDS011;5906;51.660;6.674;2023-05-10T04:29:10;43.17;;;22.30;;
11699;SDS011;5906;51.660;6.674;2023-05-10T04:31:37;43.50;;;21.63;;
11699;SDS011;5906;51.660;6.674;2023-05-10T04:34:04;53.47;;;23.80;;
11699;SDS011;5906;51.660;6.674;2023-05-10T04:36:31;47.47;;;21.37;;
11699;SDS011;5906;51.660;6.674;2023-05-10T04:39:00;47.63;;;22.00;;
11699;SDS011;5906;51.660;6.674;2023-05-10T04:41:27;52.83;;;22.03;;
11699;SDS011;5906;51.660;6.674;2023-05-10T04:43:54;54.20;;;24.10;;
11699;SDS011;5906;51.660;6.674;2023-05-10T04:46:21;60.93;;;24.50;;
11699;SDS011;5906;51.660;6.674;2023-05-10T04:48:48;57.43;;;25.20;;
11699;SDS011;5906;51.660;6.674;2023-05-10T04:51:14;58.60;;;24.77;;
11699;SDS011;5906;51.660;6.674;2023-05-10T04:53:41;63.20;;;24.30;;
11699;SDS011;5906;51.660;6.674;2023-05-10T04:56:19;64.50;;;25.80;;
11699;SDS011;5906;51.660;6.674;2023-05-10T04:58:46;58.40;;;25.27;;
11699;SDS011;5906;51.660;6.674;2023-05-10T05:01:12;70.43;;;24.27;;
11699;SDS011;5906;51.660;6.674;2023-05-10T05:03:40;64.00;;;24.50;;
11699;SDS011;5906;51.660;6.674;2023-05-10T05:06:07;62.23;;;27.87;;
11699;SDS011;5906;51.660;6.674;2023-05-10T05:08:34;59.73;;;26.00;;
11699;SDS011;5906;51.660;6.674;2023-05-10T05:11:00;62.40;;;26.20;;
11699;SDS011;5906;51.660;6.674;2023-05-10T05:13:27;63.60;;;25.40;;
11699;SDS011;5906;51.660;6.674;2023-05-10T05:15:55;59.47;;;25.30;;
11699;SDS011;5906;51.660;6.674;2023-05-10T05:18:22;66.43;;;26.37;;
11699;SDS011;5906;51.660;6.674;2023-05-10T05:20:49;65.40;;;27.37;;
11699;SDS011;5906;51.660;6.674;2023-05-10T05:23:15;57.57;;;25.63;;
11699;SDS011;5906;51.660;6.674;2023-05-10T05:25:42;66.40;;;28.30;;
11699;SDS011;5906;51.660;6.674;2023-05-10T05:28:09;60.47;;;27.80;;
11699;SDS011;5906;51.660;6.674;2023-05-10T05:30:36;63.67;;;27.30;;
11699;SDS011;5906;51.660;6.674;2023-05-10T05:33:03;67.10;;;26.83;;
11699;SDS011;5906;51.660;6.674;2023-05-10T05:35:31;70.47;;;27.60;;
11699;SDS011;5906;51.660;6.674;2023-05-10T05:37:58;67.53;;;26.50;;
11699;SDS011;5906;51.660;6.674;2023-05-10T05:40:25;66.13;;;27.30;;
11699;SDS011;5906;51.660;6.674;2023-05-10T05:42:52;59.63;;;26.70;;
11699;SDS011;5906;51.660;6.674;2023-05-10T05:45:18;55.80;;;25.73;;
11699;SDS011;5906;51.660;6.674;2023-05-10T05:47:45;70.77;;;28.90;;
11699;SDS011;5906;51.660;6.674;2023-05-10T05:50:12;71.63;;;27.40;;
11699;SDS011;5906;51.660;6.674;2023-05-10T05:52:39;59.87;;;25.83;;
11699;SDS011;5906;51.660;6.674;2023-05-10T05:55:07;66.43;;;27.40;;
11699;SDS011;5906;51.660;6.674;2023-05-10T05:57:33;72.40;;;31.17;;
11699;SDS011;5906;51.660;6.674;2023-05-10T06:00:00;62.37;;;27.67;;
11699;SDS011;5906;51.660;6.674;2023-05-10T06:02:29;63.83;;;28.20;;
11699;SDS011;5906;51.660;6.674;2023-05-10T06:04:56;62.03;;;27.90;;
11699;SDS011;5906;51.660;6.674;2023-05-10T06:07:23;68.73;;;30.27;;
11699;SDS011;5906;51.660;6.674;2023-05-10T06:09:49;58.63;;;26.93;;
11699;SDS011;5906;51.660;6.674;2023-05-10T06:12:16;58.47;;;26.00;;
11699;SDS011;5906;51.660;6.674;2023-05-10T06:14:43;61.57;;;28.50;;
11699;SDS011;5906;51.660;6.674;2023-05-10T06:17:10;60.40;;;26.43;;
11699;SDS011;5906;51.660;6.674;2023-05-10T06:19:37;60.40;;;26.17;;
11699;SDS011;5906;51.660;6.674;2023-05-10T06:22:03;64.13;;;27.53;;
11699;SDS011;5906;51.660;6.674;2023-05-10T06:24:30;54.80;;;25.57;;
11699;SDS011;5906;51.660;6.674;2023-05-10T06:26:57;55.83;;;27.43;;
11699;SDS011;5906;51.660;6.674;2023-05-10T06:29:26;55.23;;;25.70;;
11699;SDS011;5906;51.660;6.674;2023-05-10T06:31:52;57.33;;;27.27;;
11699;SDS011;5906;51.660;6.674;2023-05-10T06:34:20;54.77;;;27.10;;
11699;SDS011;5906;51.660;6.674;2023-05-10T06:36:47;53.83;;;25.33;;
11699;SDS011;5906;51.660;6.674;2023-05-10T06:39:14;63.00;;;29.17;;
11699;SDS011;5906;51.660;6.674;2023-05-10T06:41:40;58.83;;;27.50;;
11699;SDS011;5906;51.660;6.674;2023-05-10T06:44:08;58.17;;;27.60;;
11699;SDS011;5906;51.660;6.674;2023-05-10T06:46:36;59.17;;;26.20;;
11699;SDS011;5906;51.660;6.674;2023-05-10T06:49:03;62.00;;;26.93;;
11699;SDS011;5906;51.660;6.674;2023-05-10T06:51:29;52.53;;;24.33;;
11699;SDS011;5906;51.660;6.674;2023-05-10T06:53:56;65.73;;;28.10;;
11699;SDS011;5906;51.660;6.674;2023-05-10T06:56:23;51.00;;;25.67;;
11699;SDS011;5906;51.660;6.674;2023-05-10T06:58:50;56.93;;;25.73;;
11699;SDS011;5906;51.660;6.674;2023-05-10T07:01:17;65.93;;;28.67;;
11699;SDS011;5906;51.660;6.674;2023-05-10T07:03:44;52.97;;;25.20;;
11699;SDS011;5906;51.660;6.674;2023-05-10T07:06:11;70.47;;;28.60;;
11699;SDS011;5906;51.660;6.674;2023-05-10T07:08:56;64.87;;;28.97;;
11699;SDS011;5906;51.660;6.674;2023-05-10T07:11:23;59.00;;;27.30;;
11699;SDS011;5906;51.660;6.674;2023-05-10T07:13:50;61.40;;;26.00;;
11699;SDS011;5906;51.660;6.674;2023-05-10T07:16:16;62.60;;;28.40;;
11699;SDS011;5906;51.660;6.674;2023-05-10T07:18:43;56.67;;;26.90;;
11699;SDS011;5906;51.660;6.674;2023-05-10T07:21:10;58.20;;;27.57;;
11699;SDS011;5906;51.660;6.674;2023-05-10T07:23:38;64.83;;;27.60;;
11699;SDS011;5906;51.660;6.674;2023-05-10T07:26:04;56.27;;;27.70;;
11699;SDS011;5906;51.660;6.674;2023-05-10T07:28:31;63.03;;;28.07;;
11699;SDS011;5906;51.660;6.674;2023-05-10T07:30:58;63.23;;;27.70;;
11699;SDS011;5906;51.660;6.674;2023-05-10T07:33:25;58.57;;;27.53;;
11699;SDS011;5906;51.660;6.674;2023-05-10T07:35:51;51.07;;;26.37;;
11699;SDS011;5906;51.660;6.674;2023-05-10T07:38:18;61.13;;;28.30;;
11699;SDS011;5906;51.660;6.674;2023-05-10T07:40:45;50.87;;;24.80;;
11699;SDS011;5906;51.660;6.674;2023-05-10T07:43:12;54.30;;;25.03;;
11699;SDS011;5906;51.660;6.674;2023-05-10T07:45:39;45.17;;;24.17;;
11699;SDS011;5906;51.660;6.674;2023-05-10T07:48:05;54.47;;;26.27;;
11699;SDS011;5906;51.660;6.674;2023-05-10T07:50:32;50.43;;;25.50;;
11699;SDS011;5906;51.660;6.674;2023-05-10T07:52:59;54.73;;;24.60;;
11699;SDS011;5906;51.660;6.674;2023-05-10T07:55:26;62.37;;;25.13;;
11699;SDS011;5906;51.660;6.674;2023-05-10T07:57:53;54.87;;;24.00;;
11699;SDS011;5906;51.660;6.674;2023-05-10T08:00:20;49.83;;;24.23;;
11699;SDS011;5906;51.660;6.674;2023-05-10T08:02:47;49.70;;;23.73;;
11699;SDS011;5906;51.660;6.674;2023-05-10T08:05:14;51.23;;;22.63;;
11699;SDS011;5906;51.660;6.674;2023-05-10T08:07:41;48.87;;;23.13;;
11699;SDS011;5906;51.660;6.674;2023-05-10T08:10:09;43.10;;;21.60;;
11699;SDS011;5906;51.660;6.674;2023-05-10T08:12:40;45.67;;;22.97;;
11699;SDS011;5906;51.660;6.674;2023-05-10T08:15:07;45.80;;;20.87;;
11699;SDS011;5906;51.660;6.674;2023-05-10T08:17:34;47.87;;;21.83;;
11699;SDS011;5906;51.660;6.674;2023-05-10T08:20:01;47.50;;;22.67;;
11699;SDS011;5906;51.660;6.674;2023-05-10T08:22:28;44.50;;;21.57;;
11699;SDS011;5906;51.660;6.674;2023-05-10T08:24:55;43.00;;;19.07;;
11699;SDS011;5906;51.660;6.674;2023-05-10T08:27:22;42.83;;;20.60;;
11699;SDS011;5906;51.660;6.674;2023-05-10T08:29:49;37.77;;;20.17;;
11699;SDS011;5906;51.660;6.674;2023-05-10T08:32:16;44.40;;;19.60;;
11699;SDS011;5906;51.660;6.674;2023-05-10T08:34:43;43.30;;;20.83;;
11699;SDS011;5906;51.660;6.674;2023-05-10T08:37:10;42.10;;;20.33;;
11699;SDS011;5906;51.660;6.674;2023-05-10T08:39:39;45.17;;;20.77;;
11699;SDS011;5906;51.660;6.674;2023-05-10T08:42:07;32.73;;;17.13;;
11699;SDS011;5906;51.660;6.674;2023-05-10T08:44:35;39.50;;;17.77;;
11699;SDS011;5906;51.660;6.674;2023-05-10T08:47:04;39.17;;;18.53;;
11699;SDS011;5906;51.660;6.674;2023-05-10T08:49:35;38.77;;;18.50;;
11699;SDS011;5906;51.660;6.674;2023-05-10T08:52:04;34.93;;;18.30;;
11699;SDS011;5906;51.660;6.674;2023-05-10T08:54:33;45.57;;;19.07;;
11699;SDS011;5906;51.660;6.674;2023-05-10T08:57:00;39.73;;;19.20;;
11699;SDS011;5906;51.660;6.674;2023-05-10T08:59:28;44.63;;;19.67;;
11699;SDS011;5906;51.660;6.674;2023-05-10T09:01:58;34.93;;;18.13;;
11699;SDS011;5906;51.660;6.674;2023-05-10T09:04:25;41.57;;;20.87;;
11699;SDS011;5906;51.660;6.674;2023-05-10T09:06:53;44.17;;;19.93;;
11699;SDS011;5906;51.660;6.674;2023-05-10T09:09:21;48.17;;;21.97;;
11699;SDS011;5906;51.660;6.674;2023-05-10T09:11:48;46.67;;;21.83;;
11699;SDS011;5906;51.660;6.674;2023-05-10T09:14:15;48.63;;;21.23;;
11699;SDS011;5906;51.660;6.674;2023-05-10T09:16:43;42.17;;;21.03;;
11699;SDS011;5906;51.660;6.674;2023-05-10T09:19:10;44.80;;;19.03;;
11699;SDS011;5906;51.660;6.674;2023-05-10T09:21:37;46.77;;;18.60;;
11699;SDS011;5906;51.660;6.674;2023-05-10T09:24:08;40.43;;;19.50;;
11699;SDS011;5906;51.660;6.674;2023-05-10T09:26:35;42.40;;;19.90;;
11699;SDS011;5906;51.660;6.674;2023-05-10T09:29:11;40.90;;;18.87;;
11699;SDS011;5906;51.660;6.674;2023-05-10T09:31:43;37.27;;;19.00;;
11699;SDS011;5906;51.660;6.674;2023-05-10T09:34:28;33.10;;;17.67;;
11699;SDS011;5906;51.660;6.674;2023-05-10T09:36:57;30.10;;;16.67;;
11699;SDS011;5906;51.660;6.674;2023-05-10T09:39:32;36.30;;;18.70;;
11699;SDS011;5906;51.660;6.674;2023-05-10T09:42:00;35.90;;;18.50;;
11699;SDS011;5906;51.660;6.674;2023-05-10T09:44:37;33.70;;;18.30;;
11699;SDS011;5906;51.660;6.674;2023-05-10T09:47:04;39.03;;;16.13;;
11699;SDS011;5906;51.660;6.674;2023-05-10T09:49:31;34.40;;;17.40;;
11699;SDS011;5906;51.660;6.674;2023-05-10T09:52:02;38.10;;;16.50;;
11699;SDS011;5906;51.660;6.674;2023-05-10T09:54:30;30.27;;;15.57;;
11699;SDS011;5906;51.660;6.674;2023-05-10T09:56:59;34.50;;;16.07;;
11699;SDS011;5906;51.660;6.674;2023-05-10T09:59:27;31.80;;;15.87;;
11699;SDS011;5906;51.660;6.674;2023-05-10T10:01:57;27.20;;;14.27;;
11699;SDS011;5906;51.660;6.674;2023-05-10T10:04:26;26.90;;;13.70;;
11699;SDS011;5906;51.660;6.674;2023-05-10T10:07:00;30.20;;;15.50;;
11699;SDS011;5906;51.660;6.674;2023-05-10T10:09:31;30.93;;;15.13;;
11699;SDS011;5906;51.660;6.674;2023-05-10T10:12:02;28.73;;;14.73;;
11699;SDS011;5906;51.660;6.674;2023-05-10T10:14:29;26.60;;;14.10;;
11699;SDS011;5906;51.660;6.674;2023-05-10T10:16:56;30.90;;;14.67;;
11699;SDS011;5906;51.660;6.674;2023-05-10T10:19:34;30.63;;;14.93;;
11699;SDS011;5906;51.660;6.674;2023-05-10T10:22:02;27.07;;;14.93;;
11699;SDS011;5906;51.660;6.674;2023-05-10T10:24:29;29.93;;;15.87;;
11699;SDS011;5906;51.660;6.674;2023-05-10T10:26:57;29.53;;;14.37;;
11699;SDS011;5906;51.660;6.674;2023-05-10T10:29:42;28.87;;;14.00;;
11699;SDS011;5906;51.660;6.674;2023-05-10T10:35:15;34.60;;;15.90;;
11699;SDS011;5906;51.660;6.674;2023-05-10T10:37:47;34.73;;;15.07;;
11699;SDS011;5906;51.660;6.674;2023-05-10T10:40:23;28.60;;;14.90;;
11699;SDS011;5906;51.660;6.674;2023-05-10T10:42:53;29.43;;;14.93;;
11699;SDS011;5906;51.660;6.674;2023-05-10T10:45:21;33.27;;;15.70;;
11699;SDS011;5906;51.660;6.674;2023-05-10T10:47:53;25.00;;;14.00;;
11699;SDS011;5906;51.660;6.674;2023-05-10T10:50:43;29.10;;;16.17;;
11699;SDS011;5906;51.660;6.674;2023-05-10T10:53:12;31.23;;;16.70;;
11699;SDS011;5906;51.660;6.674;2023-05-10T10:55:48;32.37;;;16.20;;
11699;SDS011;5906;51.660;6.674;2023-05-10T10:58:30;38.30;;;18.50;;
11699;SDS011;5906;51.660;6.674;2023-05-10T11:03:40;34.17;;;16.47;;
11699;SDS011;5906;51.660;6.674;2023-05-10T11:06:30;30.53;;;16.60;;
11699;SDS011;5906;51.660;6.674;2023-05-10T11:08:58;29.53;;;16.37;;
11699;SDS011;5906;51.660;6.674;2023-05-10T11:11:31;27.13;;;14.97;;
11699;SDS011;5906;51.660;6.674;2023-05-10T11:14:02;30.90;;;16.50;;
11699;SDS011;5906;51.660;6.674;2023-05-10T11:16:41;28.57;;;17.13;;
11699;SDS011;5906;51.660;6.674;2023-05-10T11:19:12;26.40;;;15.00;;
11699;SDS011;5906;51.660;6.674;2023-05-10T11:21:47;28.20;;;16.40;;
11699;SDS011;5906;51.660;6.674;2023-05-10T11:24:30;32.17;;;17.30;;
11699;SDS011;5906;51.660;6.674;2023-05-10T11:26:56;29.70;;;16.10;;
11699;SDS011;5906;51.660;6.674;2023-05-10T11:29:23;30.63;;;17.07;;
11699;SDS011;5906;51.660;6.674;2023-05-10T11:31:52;35.03;;;16.63;;
11699;SDS011;5906;51.660;6.674;2023-05-10T11:34:24;29.37;;;16.00;;
11699;SDS011;5906;51.660;6.674;2023-05-10T11:37:01;34.70;;;17.20;;
11699;SDS011;5906;51.660;6.674;2023-05-10T11:39:29;29.47;;;16.60;;
11699;SDS011;5906;51.660;6.674;2023-05-10T11:41:57;31.13;;;17.10;;
11699;SDS011;5906;51.660;6.674;2023-05-10T11:44:31;31.73;;;15.90;;
11699;SDS011;5906;51.660;6.674;2023-05-10T11:47:01;30.73;;;17.53;;
11699;SDS011;5906;51.660;6.674;2023-05-10T11:49:29;25.10;;;15.47;;
11699;SDS011;5906;51.660;6.674;2023-05-10T11:52:08;24.67;;;16.37;;
11699;SDS011;5906;51.660;6.674;2023-05-10T11:54:37;30.63;;;15.03;;
11699;SDS011;5906;51.660;6.674;2023-05-10T11:57:04;26.73;;;15.70;;
11699;SDS011;5906;51.660;6.674;2023-05-10T11:59:31;31.50;;;16.20;;
11699;SDS011;5906;51.660;6.674;2023-05-10T12:01:58;27.40;;;14.67;;
11699;SDS011;5906;51.660;6.674;2023-05-10T12:04:25;35.80;;;13.73;;
11699;SDS011;5906;51.660;6.674;2023-05-10T12:06:55;27.70;;;14.23;;
11699;SDS011;5906;51.660;6.674;2023-05-10T12:09:22;24.53;;;14.30;;
11699;SDS011;5906;51.660;6.674;2023-05-10T12:11:55;23.20;;;14.17;;
11699;SDS011;5906;51.660;6.674;2023-05-10T12:14:25;24.00;;;13.77;;
11699;SDS011;5906;51.660;6.674;2023-05-10T12:16:52;25.67;;;14.60;;
11699;SDS011;5906;51.660;6.674;2023-05-10T12:19:19;30.23;;;14.90;;
11699;SDS011;5906;51.660;6.674;2023-05-10T12:21:47;25.50;;;14.53;;
11699;SDS011;5906;51.660;6.674;2023-05-10T12:24:14;22.53;;;13.80;;
11699;SDS011;5906;51.660;6.674;2023-05-10T12:26:47;24.10;;;13.40;;
11699;SDS011;5906;51.660;6.674;2023-05-10T12:29:15;24.33;;;13.23;;
11699;SDS011;5906;51.660;6.674;2023-05-10T12:31:50;22.97;;;13.40;;
11699;SDS011;5906;51.660;6.674;2023-05-10T12:34:23;20.57;;;13.13;;
11699;SDS011;5906;51.660;6.674;2023-05-10T12:36:55;21.90;;;13.47;;
11699;SDS011;5906;51.660;6.674;2023-05-10T12:39:22;18.40;;;12.50;;
11699;SDS011;5906;51.660;6.674;2023-05-10T12:41:50;19.57;;;12.30;;
11699;SDS011;5906;51.660;6.674;2023-05-10T12:44:17;21.50;;;12.73;;
11699;SDS011;5906;51.660;6.674;2023-05-10T12:46:44;21.70;;;14.37;;
11699;SDS011;5906;51.660;6.674;2023-05-10T12:49:11;18.30;;;12.57;;
11699;SDS011;5906;51.660;6.674;2023-05-10T12:51:37;21.13;;;12.10;;
11699;SDS011;5906;51.660;6.674;2023-05-10T12:54:04;18.40;;;10.80;;
11699;SDS011;5906;51.660;6.674;2023-05-10T12:56:31;17.20;;;11.07;;
11699;SDS011;5906;51.660;6.674;2023-05-10T12:58:58;21.37;;;11.40;;
11699;SDS011;5906;51.660;6.674;2023-05-10T13:01:24;19.63;;;12.37;;
11699;SDS011;5906;51.660;6.674;2023-05-10T13:03:53;15.53;;;10.97;;
11699;SDS011;5906;51.660;6.674;2023-05-10T13:06:19;15.30;;;11.07;;
11699;SDS011;5906;51.660;6.674;2023-05-10T13:08:46;16.87;;;11.67;;
11699;SDS011;5906;51.660;6.674;2023-05-10T13:11:13;18.53;;;11.83;;
11699;SDS011;5906;51.660;6.674;2023-05-10T13:13:43;20.50;;;12.50;;
11699;SDS011;5906;51.660;6.674;2023-05-10T13:16:10;20.57;;;11.23;;
11699;SDS011;5906;51.660;6.674;2023-05-10T13:18:37;24.23;;;12.97;;
11699;SDS011;5906;51.660;6.674;2023-05-10T13:21:04;23.20;;;11.80;;
11699;SDS011;5906;51.660;6.674;2023-05-10T13:23:31;19.43;;;13.00;;
11699;SDS011;5906;51.660;6.674;2023-05-10T13:25:58;18.90;;;12.03;;
11699;SDS011;5906;51.660;6.674;2023-05-10T13:28:26;21.87;;;12.50;;
11699;SDS011;5906;51.660;6.674;2023-05-10T13:30:53;22.10;;;11.73;;
11699;SDS011;5906;51.660;6.674;2023-05-10T13:33:20;22.83;;;12.73;;
11699;SDS011;5906;51.660;6.674;2023-05-10T13:35:46;18.00;;;11.87;;
11699;SDS011;5906;51.660;6.674;2023-05-10T13:38:13;22.23;;;11.93;;
11699;SDS011;5906;51.660;6.674;2023-05-10T13:40:40;15.60;;;11.97;;
11699;SDS011;5906;51.660;6.674;2023-05-10T13:43:07;19.77;;;12.03;;
11699;SDS011;5906;51.660;6.674;2023-05-10T13:45:34;25.03;;;12.80;;
11699;SDS011;5906;51.660;6.674;2023-05-10T13:48:03;15.30;;;10.27;;
11699;SDS011;5906;51.660;6.674;2023-05-10T13:50:30;14.80;;;10.30;;
11699;SDS011;5906;51.660;6.674;2023-05-10T13:52:57;17.80;;;11.20;;
11699;SDS011;5906;51.660;6.674;2023-05-10T13:55:24;16.23;;;10.80;;
11699;SDS011;5906;51.660;6.674;2023-05-10T13:57:51;17.27;;;10.23;;
11699;SDS011;5906;51.660;6.674;2023-05-10T14:00:18;14.60;;;10.10;;
11699;SDS011;5906;51.660;6.674;2023-05-10T14:02:45;14.30;;;9.70;;
11699;SDS011;5906;51.660;6.674;2023-05-10T14:05:12;15.13;;;10.23;;
11699;SDS011;5906;51.660;6.674;2023-05-10T14:07:39;18.37;;;11.43;;
11699;SDS011;5906;51.660;6.674;2023-05-10T14:10:06;20.00;;;11.57;;
11699;SDS011;5906;51.660;6.674;2023-05-10T14:12:33;16.93;;;11.10;;
11699;SDS011;5906;51.660;6.674;2023-05-10T14:14:59;22.97;;;11.13;;
11699;SDS011;5906;51.660;6.674;2023-05-10T14:17:26;16.30;;;10.70;;
11699;SDS011;5906;51.660;6.674;2023-05-10T14:19:53;19.63;;;11.30;;
11699;SDS011;5906;51.660;6.674;2023-05-10T14:22:20;16.13;;;10.83;;
11699;SDS011;5906;51.660;6.674;2023-05-10T14:24:48;19.23;;;10.67;;
11699;SDS011;5906;51.660;6.674;2023-05-10T14:27:15;13.43;;;9.27;;
11699;SDS011;5906;51.660;6.674;2023-05-10T14:29:42;14.67;;;9.93;;
11699;SDS011;5906;51.660;6.674;2023-05-10T14:32:08;14.57;;;8.50;;
11699;SDS011;5906;51.660;6.674;2023-05-10T14:37:17;12.30;;;8.43;;
11699;SDS011;5906;51.660;6.674;2023-05-10T14:39:44;14.20;;;9.50;;
11699;SDS011;5906;51.660;6.674;2023-05-10T14:42:11;14.83;;;9.60;;
11699;SDS011;5906;51.660;6.674;2023-05-10T14:44:38;15.07;;;9.40;;
11699;SDS011;5906;51.660;6.674;2023-05-10T14:47:05;15.53;;;9.20;;
11699;SDS011;5906;51.660;6.674;2023-05-10T14:49:34;16.93;;;9.83;;
11699;SDS011;5906;51.660;6.674;2023-05-10T14:52:01;14.83;;;9.20;;
11699;SDS011;5906;51.660;6.674;2023-05-10T14:54:28;17.07;;;9.33;;
11699;SDS011;5906;51.660;6.674;2023-05-10T14:56:55;16.00;;;9.30;;
11699;SDS011;5906;51.660;6.674;2023-05-10T14:59:22;16.83;;;9.30;;
11699;SDS011;5906;51.660;6.674;2023-05-10T15:01:49;14.10;;;9.90;;
11699;SDS011;5906;51.660;6.674;2023-05-10T15:04:17;17.37;;;11.30;;
11699;SDS011;5906;51.660;6.674;2023-05-10T15:06:44;13.10;;;9.57;;
11699;SDS011;5906;51.660;6.674;2023-05-10T15:09:12;14.40;;;9.00;;
11699;SDS011;5906;51.660;6.674;2023-05-10T15:11:39;15.70;;;8.23;;
11699;SDS011;5906;51.660;6.674;2023-05-10T15:14:06;13.93;;;7.83;;
11699;SDS011;5906;51.660;6.674;2023-05-10T15:16:33;9.13;;;7.00;;